KBOW/BOW METAR and TAF weather

Enter ICAO airport designator
Station Type Date Time Source
KBOW METAR 2019/02/23 23:15 UTC NOAA

KBOW 232315Z AUTO 13011KT 10SM BKN060 BKN080 29/20 A3005 RMK AO2


Station Type Date Time Source
KBOW Decoded METAR 2019/02/23 23:15 UTC NOAA

Bartow Municipal, FL, United States (KBOW) 27-57N 081-47W
Feb 23, 2019 - 06:15 PM EST / 2019.02.23 2315 UTC
Wind: from the SE (130 degrees) at 13 MPH (11 KT):0
Visibility: 10 mile(s):0
Sky conditions: mostly cloudy
Temperature: 84 F (29 C)
Dew Point: 68 F (20 C)
Relative Humidity: 58%
Pressure (altimeter): 30.05 in. Hg (1017 hPa)
ob: KBOW 232315Z AUTO 13011KT 10SM BKN060 BKN080 29/20 A3005 RMK AO2
cycle: 23

Station Type Date Time Source
KBOW TAF UTC NOAA

Error!


Example: see airport list